sensor_id;sensor_type;location;lat;lon;timestamp;P1;durP1;ratioP1;P2;durP2;ratioP2
67191;SDS011;54120;53.504;49.426;2023-05-29T00:01:33;4.03;;;3.72;;
67191;SDS011;54120;53.504;49.426;2023-05-29T00:04:01;5.95;;;3.88;;
67191;SDS011;54120;53.504;49.426;2023-05-29T00:06:28;4.35;;;3.95;;
67191;SDS011;54120;53.504;49.426;2023-05-29T00:08:55;4.70;;;4.25;;
67191;SDS011;54120;53.504;49.426;2023-05-29T00:11:21;4.47;;;4.05;;
67191;SDS011;54120;53.504;49.426;2023-05-29T00:13:48;4.53;;;3.88;;
67191;SDS011;54120;53.504;49.426;2023-05-29T00:16:15;5.05;;;4.10;;
67191;SDS011;54120;53.504;49.426;2023-05-29T00:18:43;6.05;;;4.40;;
67191;SDS011;54120;53.504;49.426;2023-05-29T00:21:12;4.47;;;4.07;;
67191;SDS011;54120;53.504;49.426;2023-05-29T00:23:39;5.53;;;4.18;;
67191;SDS011;54120;53.504;49.426;2023-05-29T00:26:05;8.50;;;5.10;;
67191;SDS011;54120;53.504;49.426;2023-05-29T00:28:32;5.45;;;4.47;;
67191;SDS011;54120;53.504;49.426;2023-05-29T00:30:58;5.60;;;5.00;;
67191;SDS011;54120;53.504;49.426;2023-05-29T00:33:24;6.32;;;4.55;;
67191;SDS011;54120;53.504;49.426;2023-05-29T00:35:51;16.23;;;14.13;;
67191;SDS011;54120;53.504;49.426;2023-05-29T00:38:17;5.80;;;4.75;;
67191;SDS011;54120;53.504;49.426;2023-05-29T00:40:44;6.95;;;4.60;;
67191;SDS011;54120;53.504;49.426;2023-05-29T00:43:10;5.72;;;5.22;;
67191;SDS011;54120;53.504;49.426;2023-05-29T00:45:36;5.60;;;4.00;;
67191;SDS011;54120;53.504;49.426;2023-05-29T00:48:03;4.80;;;4.38;;
67191;SDS011;54120;53.504;49.426;2023-05-29T00:50:30;5.03;;;4.63;;
67191;SDS011;54120;53.504;49.426;2023-05-29T00:52:58;5.78;;;4.65;;
67191;SDS011;54120;53.504;49.426;2023-05-29T00:55:27;5.30;;;4.80;;
67191;SDS011;54120;53.504;49.426;2023-05-29T00:57:55;7.15;;;5.88;;
67191;SDS011;54120;53.504;49.426;2023-05-29T01:00:21;5.25;;;4.78;;
67191;SDS011;54120;53.504;49.426;2023-05-29T01:02:49;5.32;;;4.43;;
67191;SDS011;54120;53.504;49.426;2023-05-29T01:05:15;5.38;;;4.70;;
67191;SDS011;54120;53.504;49.426;2023-05-29T01:07:42;4.78;;;4.32;;
67191;SDS011;54120;53.504;49.426;2023-05-29T01:10:08;6.13;;;4.95;;
67191;SDS011;54120;53.504;49.426;2023-05-29T01:12:38;6.80;;;5.00;;
67191;SDS011;54120;53.504;49.426;2023-05-29T01:15:24;6.25;;;4.55;;
67191;SDS011;54120;53.504;49.426;2023-05-29T01:18:12;5.32;;;4.55;;
67191;SDS011;54120;53.504;49.426;2023-05-29T01:21:04;5.10;;;4.60;;
67191;SDS011;54120;53.504;49.426;2023-05-29T01:28:52;6.38;;;5.40;;
67191;SDS011;54120;53.504;49.426;2023-05-29T01:31:22;5.63;;;5.03;;
67191;SDS011;54120;53.504;49.426;2023-05-29T01:33:54;5.57;;;5.03;;
67191;SDS011;54120;53.504;49.426;2023-05-29T01:36:21;6.35;;;4.65;;
67191;SDS011;54120;53.504;49.426;2023-05-29T01:38:49;5.82;;;5.05;;
67191;SDS011;54120;53.504;49.426;2023-05-29T01:41:17;6.35;;;5.00;;
67191;SDS011;54120;53.504;49.426;2023-05-29T01:43:45;5.95;;;4.82;;
67191;SDS011;54120;53.504;49.426;2023-05-29T01:46:13;9.05;;;5.03;;
67191;SDS011;54120;53.504;49.426;2023-05-29T01:48:40;8.93;;;5.20;;
67191;SDS011;54120;53.504;49.426;2023-05-29T01:51:08;6.53;;;5.10;;
67191;SDS011;54120;53.504;49.426;2023-05-29T01:53:37;6.93;;;4.97;;
67191;SDS011;54120;53.504;49.426;2023-05-29T01:56:06;6.38;;;5.18;;
67191;SDS011;54120;53.504;49.426;2023-05-29T01:58:34;5.93;;;5.32;;
67191;SDS011;54120;53.504;49.426;2023-05-29T02:01:02;6.15;;;5.45;;
67191;SDS011;54120;53.504;49.426;2023-05-29T02:03:29;6.68;;;5.45;;
67191;SDS011;54120;53.504;49.426;2023-05-29T02:05:59;6.60;;;5.18;;
67191;SDS011;54120;53.504;49.426;2023-05-29T02:08:26;5.78;;;5.15;;
67191;SDS011;54120;53.504;49.426;2023-05-29T02:10:53;5.72;;;5.22;;
67191;SDS011;54120;53.504;49.426;2023-05-29T02:13:19;7.60;;;4.97;;
67191;SDS011;54120;53.504;49.426;2023-05-29T02:15:46;7.57;;;5.70;;
67191;SDS011;54120;53.504;49.426;2023-05-29T02:18:13;6.07;;;5.47;;
67191;SDS011;54120;53.504;49.426;2023-05-29T02:20:42;5.97;;;5.18;;
67191;SDS011;54120;53.504;49.426;2023-05-29T02:23:09;8.73;;;5.80;;
67191;SDS011;54120;53.504;49.426;2023-05-29T02:25:35;10.63;;;5.57;;
67191;SDS011;54120;53.504;49.426;2023-05-29T02:28:02;8.40;;;6.90;;
67191;SDS011;54120;53.504;49.426;2023-05-29T02:30:28;7.38;;;5.88;;
67191;SDS011;54120;53.504;49.426;2023-05-29T02:32:55;7.30;;;6.20;;
67191;SDS011;54120;53.504;49.426;2023-05-29T02:35:21;7.90;;;5.93;;
67191;SDS011;54120;53.504;49.426;2023-05-29T02:37:49;7.95;;;6.30;;
67191;SDS011;54120;53.504;49.426;2023-05-29T02:40:16;6.28;;;5.68;;
67191;SDS011;54120;53.504;49.426;2023-05-29T02:42:43;8.95;;;5.10;;
67191;SDS011;54120;53.504;49.426;2023-05-29T02:45:10;7.78;;;6.38;;
67191;SDS011;54120;53.504;49.426;2023-05-29T02:47:36;6.65;;;5.95;;
67191;SDS011;54120;53.504;49.426;2023-05-29T02:50:03;9.48;;;5.80;;
67191;SDS011;54120;53.504;49.426;2023-05-29T02:52:31;6.50;;;5.93;;
67191;SDS011;54120;53.504;49.426;2023-05-29T02:54:58;8.80;;;6.50;;
67191;SDS011;54120;53.504;49.426;2023-05-29T02:57:25;8.98;;;7.55;;
67191;SDS011;54120;53.504;49.426;2023-05-29T02:59:52;7.28;;;6.57;;
67191;SDS011;54120;53.504;49.426;2023-05-29T03:02:18;10.23;;;6.60;;
67191;SDS011;54120;53.504;49.426;2023-05-29T03:04:44;8.95;;;6.63;;
67191;SDS011;54120;53.504;49.426;2023-05-29T03:07:11;7.00;;;6.30;;
67191;SDS011;54120;53.504;49.426;2023-05-29T03:09:38;8.18;;;6.13;;
67191;SDS011;54120;53.504;49.426;2023-05-29T03:12:04;12.02;;;5.15;;
67191;SDS011;54120;53.504;49.426;2023-05-29T03:14:31;6.53;;;5.97;;
67191;SDS011;54120;53.504;49.426;2023-05-29T03:17:03;5.93;;;5.43;;
67191;SDS011;54120;53.504;49.426;2023-05-29T03:19:30;6.78;;;5.63;;
67191;SDS011;54120;53.504;49.426;2023-05-29T03:21:57;5.50;;;5.00;;
67191;SDS011;54120;53.504;49.426;2023-05-29T03:24:23;7.15;;;5.97;;
67191;SDS011;54120;53.504;49.426;2023-05-29T03:26:49;6.05;;;5.55;;
67191;SDS011;54120;53.504;49.426;2023-05-29T03:29:16;5.80;;;5.30;;
67191;SDS011;54120;53.504;49.426;2023-05-29T03:31:43;6.55;;;5.75;;
67191;SDS011;54120;53.504;49.426;2023-05-29T03:34:09;5.95;;;5.32;;
67191;SDS011;54120;53.504;49.426;2023-05-29T03:36:35;5.97;;;5.45;;
67191;SDS011;54120;53.504;49.426;2023-05-29T03:39:02;7.05;;;5.30;;
67191;SDS011;54120;53.504;49.426;2023-05-29T03:41:29;7.57;;;5.00;;
67191;SDS011;54120;53.504;49.426;2023-05-29T03:43:55;8.23;;;4.90;;
67191;SDS011;54120;53.504;49.426;2023-05-29T03:46:21;7.18;;;5.55;;
67191;SDS011;54120;53.504;49.426;2023-05-29T03:48:48;8.93;;;5.13;;
67191;SDS011;54120;53.504;49.426;2023-05-29T03:51:14;6.72;;;4.95;;
67191;SDS011;54120;53.504;49.426;2023-05-29T03:53:41;5.38;;;4.78;;
67191;SDS011;54120;53.504;49.426;2023-05-29T03:56:07;4.95;;;4.50;;
67191;SDS011;54120;53.504;49.426;2023-05-29T03:58:33;5.22;;;4.50;;
67191;SDS011;54120;53.504;49.426;2023-05-29T04:01:02;7.03;;;4.78;;
67191;SDS011;54120;53.504;49.426;2023-05-29T04:03:28;5.28;;;4.72;;
67191;SDS011;54120;53.504;49.426;2023-05-29T04:05:55;6.35;;;4.40;;
67191;SDS011;54120;53.504;49.426;2023-05-29T04:08:24;6.35;;;4.25;;
67191;SDS011;54120;53.504;49.426;2023-05-29T04:10:51;7.95;;;4.55;;
67191;SDS011;54120;53.504;49.426;2023-05-29T04:13:19;4.35;;;3.95;;
67191;SDS011;54120;53.504;49.426;2023-05-29T04:15:46;6.22;;;3.72;;
67191;SDS011;54120;53.504;49.426;2023-05-29T04:18:13;6.25;;;4.15;;
67191;SDS011;54120;53.504;49.426;2023-05-29T04:20:39;20.23;;;5.43;;
67191;SDS011;54120;53.504;49.426;2023-05-29T04:23:05;4.40;;;4.00;;
67191;SDS011;54120;53.504;49.426;2023-05-29T04:25:32;5.90;;;3.60;;
67191;SDS011;54120;53.504;49.426;2023-05-29T04:27:59;6.43;;;3.97;;
67191;SDS011;54120;53.504;49.426;2023-05-29T04:30:28;6.18;;;3.63;;
67191;SDS011;54120;53.504;49.426;2023-05-29T04:32:55;6.53;;;3.65;;
67191;SDS011;54120;53.504;49.426;2023-05-29T04:35:21;4.10;;;3.47;;
67191;SDS011;54120;53.504;49.426;2023-05-29T04:37:47;4.03;;;3.63;;
67191;SDS011;54120;53.504;49.426;2023-05-29T04:40:14;7.53;;;3.60;;
67191;SDS011;54120;53.504;49.426;2023-05-29T04:42:43;7.40;;;3.58;;
67191;SDS011;54120;53.504;49.426;2023-05-29T04:45:12;3.63;;;3.28;;
67191;SDS011;54120;53.504;49.426;2023-05-29T04:47:38;4.05;;;3.20;;
67191;SDS011;54120;53.504;49.426;2023-05-29T04:50:11;3.72;;;3.10;;
67191;SDS011;54120;53.504;49.426;2023-05-29T04:52:38;4.13;;;2.88;;
67191;SDS011;54120;53.504;49.426;2023-05-29T04:55:05;3.55;;;3.00;;
67191;SDS011;54120;53.504;49.426;2023-05-29T04:57:32;3.25;;;2.95;;
67191;SDS011;54120;53.504;49.426;2023-05-29T04:59:58;3.50;;;2.90;;
67191;SDS011;54120;53.504;49.426;2023-05-29T05:02:24;4.55;;;3.10;;
67191;SDS011;54120;53.504;49.426;2023-05-29T05:04:51;3.97;;;3.00;;
67191;SDS011;54120;53.504;49.426;2023-05-29T05:07:17;6.13;;;3.00;;
67191;SDS011;54120;53.504;49.426;2023-05-29T05:09:43;3.78;;;3.42;;
67191;SDS011;54120;53.504;49.426;2023-05-29T05:12:09;4.80;;;3.20;;
67191;SDS011;54120;53.504;49.426;2023-05-29T05:14:36;3.67;;;3.00;;
67191;SDS011;54120;53.504;49.426;2023-05-29T05:17:02;3.60;;;2.95;;
67191;SDS011;54120;53.504;49.426;2023-05-29T05:19:29;3.72;;;2.90;;
67191;SDS011;54120;53.504;49.426;2023-05-29T05:21:56;5.85;;;3.20;;
67191;SDS011;54120;53.504;49.426;2023-05-29T05:24:22;3.25;;;2.95;;
67191;SDS011;54120;53.504;49.426;2023-05-29T05:26:48;4.95;;;3.05;;
67191;SDS011;54120;53.504;49.426;2023-05-29T05:29:15;4.93;;;2.90;;
67191;SDS011;54120;53.504;49.426;2023-05-29T05:31:41;6.93;;;2.92;;
67191;SDS011;54120;53.504;49.426;2023-05-29T05:34:07;6.05;;;3.33;;
67191;SDS011;54120;53.504;49.426;2023-05-29T05:36:34;4.40;;;2.63;;
67191;SDS011;54120;53.504;49.426;2023-05-29T05:39:00;3.67;;;2.40;;
67191;SDS011;54120;53.504;49.426;2023-05-29T05:41:26;5.53;;;2.97;;
67191;SDS011;54120;53.504;49.426;2023-05-29T05:43:53;9.60;;;2.80;;
67191;SDS011;54120;53.504;49.426;2023-05-29T05:46:19;5.32;;;2.90;;
67191;SDS011;54120;53.504;49.426;2023-05-29T05:48:45;3.85;;;2.80;;
67191;SDS011;54120;53.504;49.426;2023-05-29T05:51:11;4.25;;;2.78;;
67191;SDS011;54120;53.504;49.426;2023-05-29T05:53:38;4.15;;;2.60;;
67191;SDS011;54120;53.504;49.426;2023-05-29T05:56:05;7.93;;;2.60;;
67191;SDS011;54120;53.504;49.426;2023-05-29T05:58:31;7.57;;;2.50;;
67191;SDS011;54120;53.504;49.426;2023-05-29T06:00:58;2.83;;;2.50;;
67191;SDS011;54120;53.504;49.426;2023-05-29T06:03:25;6.28;;;2.63;;
67191;SDS011;54120;53.504;49.426;2023-05-29T06:05:51;3.78;;;2.75;;
67191;SDS011;54120;53.504;49.426;2023-05-29T06:08:20;5.88;;;3.10;;
67191;SDS011;54120;53.504;49.426;2023-05-29T06:10:46;3.05;;;2.30;;
67191;SDS011;54120;53.504;49.426;2023-05-29T06:13:12;3.08;;;2.28;;
67191;SDS011;54120;53.504;49.426;2023-05-29T06:15:38;2.20;;;2.00;;
67191;SDS011;54120;53.504;49.426;2023-05-29T06:18:05;2.55;;;2.00;;
67191;SDS011;54120;53.504;49.426;2023-05-29T06:20:31;3.95;;;2.10;;
67191;SDS011;54120;53.504;49.426;2023-05-29T06:22:57;4.57;;;1.85;;
67191;SDS011;54120;53.504;49.426;2023-05-29T06:25:24;2.90;;;1.60;;
67191;SDS011;54120;53.504;49.426;2023-05-29T06:27:59;3.75;;;1.80;;
67191;SDS011;54120;53.504;49.426;2023-05-29T06:30:28;3.97;;;1.90;;
67191;SDS011;54120;53.504;49.426;2023-05-29T06:32:55;6.00;;;2.30;;
67191;SDS011;54120;53.504;49.426;2023-05-29T06:35:21;4.80;;;2.30;;
67191;SDS011;54120;53.504;49.426;2023-05-29T06:37:47;4.13;;;2.00;;
67191;SDS011;54120;53.504;49.426;2023-05-29T06:40:19;4.53;;;2.10;;
67191;SDS011;54120;53.504;49.426;2023-05-29T06:42:45;3.95;;;1.90;;
67191;SDS011;54120;53.504;49.426;2023-05-29T06:45:12;2.22;;;2.03;;
67191;SDS011;54120;53.504;49.426;2023-05-29T06:47:41;4.43;;;2.35;;
67191;SDS011;54120;53.504;49.426;2023-05-29T06:50:08;7.45;;;2.72;;
67191;SDS011;54120;53.504;49.426;2023-05-29T06:52:34;4.55;;;2.30;;
67191;SDS011;54120;53.504;49.426;2023-05-29T06:55:01;5.60;;;2.28;;
67191;SDS011;54120;53.504;49.426;2023-05-29T06:57:28;7.18;;;2.25;;
67191;SDS011;54120;53.504;49.426;2023-05-29T06:59:54;4.68;;;2.00;;
67191;SDS011;54120;53.504;49.426;2023-05-29T07:02:21;5.68;;;2.00;;
67191;SDS011;54120;53.504;49.426;2023-05-29T07:04:47;3.13;;;2.00;;
67191;SDS011;54120;53.504;49.426;2023-05-29T07:07:14;3.70;;;1.90;;
67191;SDS011;54120;53.504;49.426;2023-05-29T07:09:40;4.55;;;1.98;;
67191;SDS011;54120;53.504;49.426;2023-05-29T07:12:06;2.45;;;1.83;;
67191;SDS011;54120;53.504;49.426;2023-05-29T07:14:33;5.22;;;2.13;;
67191;SDS011;54120;53.504;49.426;2023-05-29T07:16:59;2.15;;;1.90;;
67191;SDS011;54120;53.504;49.426;2023-05-29T07:19:26;4.47;;;2.22;;
67191;SDS011;54120;53.504;49.426;2023-05-29T07:21:52;4.03;;;1.83;;
67191;SDS011;54120;53.504;49.426;2023-05-29T07:24:18;2.55;;;2.10;;
67191;SDS011;54120;53.504;49.426;2023-05-29T07:26:45;2.95;;;1.90;;
67191;SDS011;54120;53.504;49.426;2023-05-29T07:29:11;2.38;;;2.05;;
67191;SDS011;54120;53.504;49.426;2023-05-29T07:31:39;4.85;;;2.22;;
67191;SDS011;54120;53.504;49.426;2023-05-29T07:34:06;4.32;;;2.10;;
67191;SDS011;54120;53.504;49.426;2023-05-29T07:36:32;2.72;;;2.20;;
67191;SDS011;54120;53.504;49.426;2023-05-29T07:38:58;2.40;;;1.90;;
67191;SDS011;54120;53.504;49.426;2023-05-29T07:41:25;5.20;;;2.15;;
67191;SDS011;54120;53.504;49.426;2023-05-29T07:43:52;3.03;;;1.92;;
67191;SDS011;54120;53.504;49.426;2023-05-29T07:46:19;3.75;;;2.05;;
67191;SDS011;54120;53.504;49.426;2023-05-29T07:48:45;2.22;;;2.03;;
67191;SDS011;54120;53.504;49.426;2023-05-29T07:51:12;3.13;;;2.22;;
67191;SDS011;54120;53.504;49.426;2023-05-29T07:53:38;5.57;;;2.40;;
67191;SDS011;54120;53.504;49.426;2023-05-29T07:56:05;5.57;;;2.35;;
67191;SDS011;54120;53.504;49.426;2023-05-29T07:58:32;2.55;;;2.30;;
67191;SDS011;54120;53.504;49.426;2023-05-29T08:00:58;3.97;;;2.50;;
67191;SDS011;54120;53.504;49.426;2023-05-29T08:03:25;4.10;;;2.35;;
67191;SDS011;54120;53.504;49.426;2023-05-29T08:05:51;3.72;;;2.80;;
67191;SDS011;54120;53.504;49.426;2023-05-29T08:08:17;4.80;;;2.63;;
67191;SDS011;54120;53.504;49.426;2023-05-29T08:10:45;3.00;;;2.70;;
67191;SDS011;54120;53.504;49.426;2023-05-29T08:13:11;4.35;;;3.00;;
67191;SDS011;54120;53.504;49.426;2023-05-29T08:15:37;2.70;;;2.50;;
67191;SDS011;54120;53.504;49.426;2023-05-29T08:18:04;4.05;;;2.83;;
67191;SDS011;54120;53.504;49.426;2023-05-29T08:20:31;10.68;;;3.00;;
67191;SDS011;54120;53.504;49.426;2023-05-29T08:22:57;6.32;;;2.80;;
67191;SDS011;54120;53.504;49.426;2023-05-29T08:25:23;4.25;;;3.25;;
67191;SDS011;54120;53.504;49.426;2023-05-29T08:27:50;7.82;;;4.55;;
67191;SDS011;54120;53.504;49.426;2023-05-29T08:30:16;8.13;;;6.40;;
67191;SDS011;54120;53.504;49.426;2023-05-29T08:32:42;5.15;;;3.00;;
67191;SDS011;54120;53.504;49.426;2023-05-29T08:35:08;4.32;;;2.85;;
67191;SDS011;54120;53.504;49.426;2023-05-29T08:37:35;10.23;;;3.13;;
67191;SDS011;54120;53.504;49.426;2023-05-29T08:40:01;4.32;;;2.80;;
67191;SDS011;54120;53.504;49.426;2023-05-29T08:42:47;4.07;;;2.85;;
67191;SDS011;54120;53.504;49.426;2023-05-29T08:45:18;3.60;;;2.72;;
67191;SDS011;54120;53.504;49.426;2023-05-29T08:47:48;3.85;;;2.60;;
67191;SDS011;54120;53.504;49.426;2023-05-29T08:50:19;9.70;;;3.10;;
67191;SDS011;54120;53.504;49.426;2023-05-29T08:52:47;3.63;;;2.70;;
67191;SDS011;54120;53.504;49.426;2023-05-29T08:55:13;3.83;;;2.60;;
67191;SDS011;54120;53.504;49.426;2023-05-29T08:57:40;5.85;;;2.80;;
67191;SDS011;54120;53.504;49.426;2023-05-29T09:00:09;4.55;;;2.67;;
67191;SDS011;54120;53.504;49.426;2023-05-29T09:02:41;7.68;;;2.80;;
67191;SDS011;54120;53.504;49.426;2023-05-29T09:05:09;5.40;;;2.72;;
67191;SDS011;54120;53.504;49.426;2023-05-29T09:07:39;4.60;;;2.78;;
67191;SDS011;54120;53.504;49.426;2023-05-29T09:10:05;4.97;;;2.72;;
67191;SDS011;54120;53.504;49.426;2023-05-29T09:12:35;10.30;;;3.00;;
67191;SDS011;54120;53.504;49.426;2023-05-29T09:15:18;4.43;;;2.60;;
67191;SDS011;54120;53.504;49.426;2023-05-29T09:17:55;4.47;;;3.28;;
67191;SDS011;54120;53.504;49.426;2023-05-29T09:20:26;4.97;;;2.78;;
67191;SDS011;54120;53.504;49.426;2023-05-29T09:23:03;5.50;;;2.80;;
67191;SDS011;54120;53.504;49.426;2023-05-29T09:25:34;3.53;;;3.13;;
67191;SDS011;54120;53.504;49.426;2023-05-29T09:28:07;2.93;;;2.70;;
67191;SDS011;54120;53.504;49.426;2023-05-29T09:30:38;4.65;;;2.92;;
67191;SDS011;54120;53.504;49.426;2023-05-29T09:33:07;5.40;;;2.90;;
67191;SDS011;54120;53.504;49.426;2023-05-29T09:35:34;6.18;;;3.42;;
67191;SDS011;54120;53.504;49.426;2023-05-29T09:38:01;4.75;;;3.20;;
67191;SDS011;54120;53.504;49.426;2023-05-29T09:40:32;5.20;;;3.05;;
67191;SDS011;54120;53.504;49.426;2023-05-29T09:43:03;10.73;;;3.20;;
67191;SDS011;54120;53.504;49.426;2023-05-29T09:45:30;6.03;;;3.10;;
67191;SDS011;54120;53.504;49.426;2023-05-29T09:47:57;5.30;;;2.88;;
67191;SDS011;54120;53.504;49.426;2023-05-29T09:50:27;3.92;;;3.00;;
67191;SDS011;54120;53.504;49.426;2023-05-29T09:52:58;3.30;;;3.00;;
67191;SDS011;54120;53.504;49.426;2023-05-29T09:55:25;4.43;;;3.28;;
67191;SDS011;54120;53.504;49.426;2023-05-29T09:57:53;5.82;;;2.80;;
67191;SDS011;54120;53.504;49.426;2023-05-29T10:00:20;4.03;;;3.25;;
67191;SDS011;54120;53.504;49.426;2023-05-29T10:02:47;3.40;;;3.10;;
67191;SDS011;54120;53.504;49.426;2023-05-29T10:05:15;6.47;;;3.58;;
67191;SDS011;54120;53.504;49.426;2023-05-29T10:07:46;5.43;;;3.30;;
67191;SDS011;54120;53.504;49.426;2023-05-29T10:10:15;3.80;;;3.38;;
67191;SDS011;54120;53.504;49.426;2023-05-29T10:12:44;4.68;;;3.30;;
67191;SDS011;54120;53.504;49.426;2023-05-29T10:15:14;5.97;;;3.35;;
67191;SDS011;54120;53.504;49.426;2023-05-29T10:18:02;6.55;;;3.80;;
67191;SDS011;54120;53.504;49.426;2023-05-29T10:20:34;5.85;;;3.28;;
67191;SDS011;54120;53.504;49.426;2023-05-29T10:23:02;5.65;;;3.35;;
67191;SDS011;54120;53.504;49.426;2023-05-29T10:25:31;8.38;;;3.17;;
67191;SDS011;54120;53.504;49.426;2023-05-29T10:27:59;8.45;;;4.00;;
67191;SDS011;54120;53.504;49.426;2023-05-29T10:30:39;5.53;;;3.40;;
67191;SDS011;54120;53.504;49.426;2023-05-29T10:36:21;7.15;;;3.50;;
67191;SDS011;54120;53.504;49.426;2023-05-29T10:38:50;6.15;;;3.42;;
67191;SDS011;54120;53.504;49.426;2023-05-29T10:43:57;6.88;;;3.83;;
67191;SDS011;54120;53.504;49.426;2023-05-29T10:49:17;6.38;;;3.33;;
67191;SDS011;54120;53.504;49.426;2023-05-29T10:51:44;4.80;;;3.38;;
67191;SDS011;54120;53.504;49.426;2023-05-29T10:54:11;4.97;;;3.50;;
67191;SDS011;54120;53.504;49.426;2023-05-29T10:56:39;4.05;;;3.20;;
67191;SDS011;54120;53.504;49.426;2023-05-29T10:59:07;6.82;;;3.50;;
67191;SDS011;54120;53.504;49.426;2023-05-29T11:01:34;4.43;;;3.50;;
67191;SDS011;54120;53.504;49.426;2023-05-29T11:06:43;5.47;;;3.60;;
67191;SDS011;54120;53.504;49.426;2023-05-29T11:09:26;6.00;;;3.80;;
67191;SDS011;54120;53.504;49.426;2023-05-29T11:12:25;8.32;;;3.92;;
67191;SDS011;54120;53.504;49.426;2023-05-29T11:20:07;6.18;;;3.35;;
67191;SDS011;54120;53.504;49.426;2023-05-29T11:25:15;6.50;;;3.90;;
67191;SDS011;54120;53.504;49.426;2023-05-29T11:27:44;5.35;;;3.40;;
67191;SDS011;54120;53.504;49.426;2023-05-29T11:30:13;6.00;;;3.65;;
67191;SDS011;54120;53.504;49.426;2023-05-29T11:32:40;8.38;;;3.70;;
67191;SDS011;54120;53.504;49.426;2023-05-29T11:35:10;8.73;;;4.10;;
67191;SDS011;54120;53.504;49.426;2023-05-29T11:37:38;6.40;;;3.80;;
67191;SDS011;54120;53.504;49.426;2023-05-29T11:40:06;3.60;;;3.10;;
67191;SDS011;54120;53.504;49.426;2023-05-29T11:42:35;9.73;;;3.50;;
67191;SDS011;54120;53.504;49.426;2023-05-29T11:45:15;4.00;;;3.70;;
67191;SDS011;54120;53.504;49.426;2023-05-29T11:50:26;12.65;;;4.00;;
67191;SDS011;54120;53.504;49.426;2023-05-29T11:52:54;3.53;;;2.90;;
67191;SDS011;54120;53.504;49.426;2023-05-29T11:55:22;6.40;;;3.95;;
67191;SDS011;54120;53.504;49.426;2023-05-29T11:57:50;4.55;;;3.85;;
67191;SDS011;54120;53.504;49.426;2023-05-29T12:00:17;6.57;;;3.70;;
67191;SDS011;54120;53.504;49.426;2023-05-29T12:02:45;4.38;;;3.05;;
67191;SDS011;54120;53.504;49.426;2023-05-29T12:05:15;6.05;;;3.55;;
67191;SDS011;54120;53.504;49.426;2023-05-29T12:07:53;5.10;;;3.40;;
67191;SDS011;54120;53.504;49.426;2023-05-29T12:10:24;4.30;;;3.28;;
67191;SDS011;54120;53.504;49.426;2023-05-29T12:12:51;7.65;;;3.30;;
67191;SDS011;54120;53.504;49.426;2023-05-29T12:15:22;5.72;;;3.80;;
67191;SDS011;54120;53.504;49.426;2023-05-29T12:17:49;4.80;;;3.28;;
67191;SDS011;54120;53.504;49.426;2023-05-29T12:20:16;6.22;;;3.63;;
67191;SDS011;54120;53.504;49.426;2023-05-29T12:22:44;5.47;;;3.30;;
67191;SDS011;54120;53.504;49.426;2023-05-29T12:25:12;5.55;;;3.20;;
67191;SDS011;54120;53.504;49.426;2023-05-29T12:27:41;3.47;;;3.10;;
67191;SDS011;54120;53.504;49.426;2023-05-29T12:30:09;3.92;;;3.38;;
67191;SDS011;54120;53.504;49.426;2023-05-29T12:32:40;11.68;;;3.88;;
67191;SDS011;54120;53.504;49.426;2023-05-29T12:37:42;4.55;;;3.70;;
67191;SDS011;54120;53.504;49.426;2023-05-29T12:40:22;6.85;;;3.67;;
67191;SDS011;54120;53.504;49.426;2023-05-29T12:43:00;4.40;;;3.35;;
67191;SDS011;54120;53.504;49.426;2023-05-29T12:45:29;5.03;;;3.50;;
67191;SDS011;54120;53.504;49.426;2023-05-29T12:47:56;6.55;;;3.20;;
67191;SDS011;54120;53.504;49.426;2023-05-29T12:50:25;8.88;;;3.03;;
67191;SDS011;54120;53.504;49.426;2023-05-29T12:52:53;6.15;;;3.25;;
67191;SDS011;54120;53.504;49.426;2023-05-29T12:55:30;6.70;;;3.60;;
67191;SDS011;54120;53.504;49.426;2023-05-29T12:58:02;3.97;;;2.88;;
67191;SDS011;54120;53.504;49.426;2023-05-29T13:00:29;6.70;;;2.97;;
67191;SDS011;54120;53.504;49.426;2023-05-29T13:02:56;4.03;;;2.78;;
67191;SDS011;54120;53.504;49.426;2023-05-29T13:05:24;5.53;;;3.10;;
67191;SDS011;54120;53.504;49.426;2023-05-29T13:07:51;4.80;;;3.10;;
67191;SDS011;54120;53.504;49.426;2023-05-29T13:10:18;4.15;;;2.80;;
67191;SDS011;54120;53.504;49.426;2023-05-29T13:12:45;5.43;;;3.00;;
67191;SDS011;54120;53.504;49.426;2023-05-29T13:15:12;11.90;;;3.17;;
67191;SDS011;54120;53.504;49.426;2023-05-29T13:17:40;14.70;;;3.65;;
67191;SDS011;54120;53.504;49.426;2023-05-29T13:20:11;9.10;;;3.50;;
67191;SDS011;54120;53.504;49.426;2023-05-29T13:22:38;7.70;;;3.20;;
67191;SDS011;54120;53.504;49.426;2023-05-29T13:25:05;4.68;;;3.30;;
67191;SDS011;54120;53.504;49.426;2023-05-29T13:27:35;8.80;;;3.13;;
67191;SDS011;54120;53.504;49.426;2023-05-29T13:30:03;5.78;;;3.22;;
67191;SDS011;54120;53.504;49.426;2023-05-29T13:32:31;9.15;;;5.40;;
67191;SDS011;54120;53.504;49.426;2023-05-29T13:34:57;7.50;;;3.60;;
67191;SDS011;54120;53.504;49.426;2023-05-29T13:37:24;7.22;;;3.25;;
67191;SDS011;54120;53.504;49.426;2023-05-29T13:39:50;6.35;;;2.90;;
67191;SDS011;54120;53.504;49.426;2023-05-29T13:42:17;4.22;;;2.83;;
67191;SDS011;54120;53.504;49.426;2023-05-29T13:44:44;8.88;;;3.35;;
67191;SDS011;54120;53.504;49.426;2023-05-29T13:47:11;3.58;;;2.50;;
67191;SDS011;54120;53.504;49.426;2023-05-29T13:49:37;5.78;;;2.65;;
67191;SDS011;54120;53.504;49.426;2023-05-29T13:52:03;6.65;;;2.90;;
67191;SDS011;54120;53.504;49.426;2023-05-29T13:54:30;7.22;;;2.50;;
67191;SDS011;54120;53.504;49.426;2023-05-29T13:57:03;8.18;;;3.15;;
67191;SDS011;54120;53.504;49.426;2023-05-29T13:59:32;7.00;;;2.53;;
67191;SDS011;54120;53.504;49.426;2023-05-29T14:01:59;6.07;;;2.55;;
67191;SDS011;54120;53.504;49.426;2023-05-29T14:04:29;5.97;;;2.35;;
67191;SDS011;54120;53.504;49.426;2023-05-29T14:06:56;6.18;;;2.67;;
67191;SDS011;54120;53.504;49.426;2023-05-29T14:09:23;8.60;;;2.58;;
67191;SDS011;54120;53.504;49.426;2023-05-29T14:11:53;4.88;;;2.45;;
67191;SDS011;54120;53.504;49.426;2023-05-29T14:14:20;7.95;;;2.17;;
67191;SDS011;54120;53.504;49.426;2023-05-29T14:16:48;4.80;;;2.53;;
67191;SDS011;54120;53.504;49.426;2023-05-29T14:19:14;8.52;;;2.30;;
67191;SDS011;54120;53.504;49.426;2023-05-29T14:21:45;3.40;;;2.50;;
67191;SDS011;54120;53.504;49.426;2023-05-29T14:24:12;3.95;;;1.95;;
67191;SDS011;54120;53.504;49.426;2023-05-29T14:26:39;7.32;;;2.22;;
67191;SDS011;54120;53.504;49.426;2023-05-29T14:29:08;4.63;;;2.30;;
67191;SDS011;54120;53.504;49.426;2023-05-29T14:31:36;9.45;;;2.40;;
67191;SDS011;54120;53.504;49.426;2023-05-29T14:34:03;4.20;;;2.08;;
67191;SDS011;54120;53.504;49.426;2023-05-29T14:36:29;2.88;;;2.38;;
67191;SDS011;54120;53.504;49.426;2023-05-29T14:38:55;4.82;;;2.55;;
67191;SDS011;54120;53.504;49.426;2023-05-29T14:41:21;5.80;;;2.55;;
67191;SDS011;54120;53.504;49.426;2023-05-29T14:43:48;4.55;;;2.25;;
67191;SDS011;54120;53.504;49.426;2023-05-29T14:46:14;4.72;;;2.25;;
67191;SDS011;54120;53.504;49.426;2023-05-29T14:48:40;6.70;;;2.08;;
67191;SDS011;54120;53.504;49.426;2023-05-29T14:51:07;4.32;;;2.00;;
67191;SDS011;54120;53.504;49.426;2023-05-29T14:53:35;3.97;;;2.17;;
67191;SDS011;54120;53.504;49.426;2023-05-29T14:56:01;7.75;;;2.45;;
67191;SDS011;54120;53.504;49.426;2023-05-29T14:58:28;4.60;;;2.00;;
67191;SDS011;54120;53.504;49.426;2023-05-29T15:00:54;2.95;;;2.05;;
67191;SDS011;54120;53.504;49.426;2023-05-29T15:03:20;8.98;;;1.90;;
67191;SDS011;54120;53.504;49.426;2023-05-29T15:05:50;2.55;;;2.28;;
67191;SDS011;54120;53.504;49.426;2023-05-29T15:08:17;5.03;;;2.10;;